createdAt,value
2022-09-16T00:00:18.987Z,93337.84
2022-09-16T00:02:45.460Z,93353.34
2022-09-16T00:05:11.956Z,93375.91
2022-09-16T00:07:38.567Z,93346.84
2022-09-16T00:10:06.089Z,93366.66
2022-09-16T00:12:32.808Z,93344.22
2022-09-16T00:14:59.166Z,93312.97
2022-09-16T00:17:25.589Z,93332.59
2022-09-16T00:19:51.972Z,93358.72
2022-09-16T00:22:18.732Z,93341.47
2022-09-16T00:24:45.096Z,93324.72
2022-09-16T00:27:13.070Z,93339.53
2022-09-16T00:29:39.467Z,93324.38
2022-09-16T00:32:05.892Z,93346.28
2022-09-16T00:34:32.266Z,93336.50
2022-09-16T00:36:58.656Z,93338.56
2022-09-16T00:39:25.370Z,93363.75
2022-09-16T00:41:51.788Z,93348.81
2022-09-16T00:44:55.350Z,93359.50
2022-09-16T00:47:44.629Z,93365.88
2022-09-16T00:50:20.546Z,93367.03
2022-09-16T00:52:48.051Z,93338.75
2022-09-16T00:55:19.360Z,93338.75
2022-09-16T00:57:46.862Z,93340.38
2022-09-16T01:00:14.055Z,93316.72
2022-09-16T01:02:44.147Z,93333.31
2022-09-16T01:05:15.435Z,93345.06
2022-09-16T01:07:52.311Z,93325.84
2022-09-16T01:10:22.756Z,93319.75
2022-09-16T01:12:54.567Z,93315.41
2022-09-16T01:15:26.407Z,93338.03
2022-09-16T01:18:21.508Z,93354.13
2022-09-16T01:20:47.815Z,93348.09
2022-09-16T01:23:29.347Z,93349.69
2022-09-16T01:26:08.848Z,93346.44
2022-09-16T01:28:45.944Z,93351.94
2022-09-16T01:31:31.434Z,93354.69
2022-09-16T01:34:33.310Z,93355.28
2022-09-16T01:37:13.046Z,93354.00
2022-09-16T01:39:42.344Z,93351.94
2022-09-16T01:42:34.943Z,93330.34
2022-09-16T01:45:33.398Z,93351.44
2022-09-16T01:48:20.129Z,93329.97
2022-09-16T01:50:52.837Z,93347.91
2022-09-16T01:53:24.444Z,93324.53
2022-09-16T01:56:18.611Z,93335.59
2022-09-16T01:58:48.090Z,93292.28
2022-09-16T02:01:55.043Z,93349.31
2022-09-16T02:04:39.929Z,93353.53
2022-09-16T02:07:10.715Z,93353.78
2022-09-16T02:09:47.684Z,93334.38
2022-09-16T02:12:20.888Z,93341.03
2022-09-16T02:14:49.026Z,93329.16
2022-09-16T02:17:20.240Z,93334.88
2022-09-16T02:19:53.513Z,93340.81
2022-09-16T02:22:25.703Z,93334.97
2022-09-16T02:24:52.914Z,93333.03
2022-09-16T02:27:22.981Z,93359.97
2022-09-16T02:29:55.742Z,93337.50
2022-09-16T02:32:25.976Z,93357.44
2022-09-16T02:34:54.592Z,93356.97
2022-09-16T02:37:36.564Z,93337.25
2022-09-16T02:40:10.225Z,93350.81
2022-09-16T02:42:36.668Z,93331.41
2022-09-16T02:45:03.598Z,93349.09
2022-09-16T02:47:37.433Z,93310.16
2022-09-16T02:50:27.286Z,93347.16
2022-09-16T02:53:02.556Z,93345.59
2022-09-16T02:55:38.742Z,93347.44
2022-09-16T02:58:06.615Z,93329.16
2022-09-16T03:00:39.757Z,93356.06
2022-09-16T03:03:06.350Z,93305.88
2022-09-16T03:05:32.836Z,93341.69
2022-09-16T03:08:02.998Z,93346.00
2022-09-16T03:10:36.665Z,93323.66
2022-09-16T03:13:34.716Z,93329.97
2022-09-16T03:16:45.365Z,93340.00
2022-09-16T03:19:36.018Z,93345.81
2022-09-16T03:22:32.215Z,93330.53
2022-09-16T03:25:09.776Z,93335.31
2022-09-16T03:27:44.533Z,93331.31
2022-09-16T03:30:11.584Z,93336.56
2022-09-16T03:32:48.866Z,93302.69
2022-09-16T03:35:19.194Z,93338.22
2022-09-16T03:37:46.995Z,93332.31
2022-09-16T03:40:18.419Z,93316.94
2022-09-16T03:42:45.378Z,93317.28
2022-09-16T03:45:17.742Z,93344.22
2022-09-16T03:47:46.510Z,93319.59
2022-09-16T03:50:14.246Z,93303.84
2022-09-16T03:52:40.622Z,93314.59
2022-09-16T03:55:07.908Z,93334.84
2022-09-16T03:57:34.593Z,93311.81
2022-09-16T04:00:01.218Z,93321.19
2022-09-16T04:02:27.718Z,93319.34
2022-09-16T04:04:54.136Z,93300.66
2022-09-16T04:07:20.736Z,93323.69
2022-09-16T04:09:47.194Z,93311.50
2022-09-16T04:12:14.907Z,93324.38
2022-09-16T04:14:41.361Z,93274.19
2022-09-16T04:17:08.735Z,93296.41
2022-09-16T04:19:35.182Z,93298.59
2022-09-16T04:22:01.582Z,93275.78
2022-09-16T04:24:27.992Z,93275.19
2022-09-16T04:26:54.355Z,93238.44
2022-09-16T04:29:20.719Z,93287.41
2022-09-16T04:31:47.122Z,93270.56
2022-09-16T04:34:13.608Z,93270.13
2022-09-16T04:36:40.170Z,93265.31
2022-09-16T04:39:06.585Z,93256.31
2022-09-16T04:41:32.979Z,93273.47
2022-09-16T04:44:00.326Z,93299.00
2022-09-16T04:46:28.732Z,93299.00
2022-09-16T04:48:56.347Z,93269.34
2022-09-16T04:51:23.951Z,93294.88
2022-09-16T04:53:50.403Z,93278.22
2022-09-16T04:56:22.231Z,93297.63
2022-09-16T04:58:51.286Z,93288.22
2022-09-16T05:01:23.857Z,93299.41
2022-09-16T05:03:53.419Z,93298.72
2022-09-16T05:06:22.766Z,93294.75
2022-09-16T05:08:50.588Z,93303.53
2022-09-16T05:11:20.340Z,93265.13
2022-09-16T05:13:46.856Z,93264.16
2022-09-16T05:16:16.230Z,93299.19
2022-09-16T05:18:44.169Z,93251.91
2022-09-16T05:21:13.650Z,93288.66
2022-09-16T05:23:46.900Z,93289.53
2022-09-16T05:26:17.536Z,93274.53
2022-09-16T05:28:43.909Z,93264.63
2022-09-16T05:31:11.818Z,93270.38
2022-09-16T05:33:44.696Z,93282.69
2022-09-16T05:36:14.350Z,93251.09
2022-09-16T05:38:40.966Z,93279.78
2022-09-16T05:41:07.960Z,93265.19
2022-09-16T05:43:36.435Z,93284.19
2022-09-16T05:46:04.890Z,93292.53
2022-09-16T05:48:32.310Z,93260.84
2022-09-16T05:51:04.778Z,93289.75
2022-09-16T05:53:33.653Z,93277.25
2022-09-16T05:56:06.242Z,93287.94
2022-09-16T05:58:34.290Z,93282.69
2022-09-16T06:01:11.115Z,93284.44
2022-09-16T06:03:39.496Z,93284.94
2022-09-16T06:06:14.651Z,93287.88
2022-09-16T06:08:41.424Z,93267.75
2022-09-16T06:11:10.843Z,93272.47
2022-09-16T06:13:38.063Z,93270.88
2022-09-16T06:16:06.564Z,93280.44
2022-09-16T06:18:34.010Z,93290.44
2022-09-16T06:21:05.203Z,93276.06
2022-09-16T06:23:31.786Z,93277.66
2022-09-16T06:26:14.008Z,93290.22
2022-09-16T06:28:41.196Z,93268.34
2022-09-16T06:31:12.991Z,93274.94
2022-09-16T06:33:40.111Z,93280.00
2022-09-16T06:36:08.064Z,93277.38
2022-09-16T06:38:34.571Z,93255.94
2022-09-16T06:41:03.247Z,93246.97
2022-09-16T06:43:29.896Z,93254.97
2022-09-16T06:46:02.174Z,93265.63
2022-09-16T06:48:29.566Z,93271.81
2022-09-16T06:51:06.073Z,93272.94
2022-09-16T06:53:32.825Z,93265.25
2022-09-16T06:56:04.836Z,93264.19
2022-09-16T06:58:36.488Z,93267.53
2022-09-16T07:01:11.796Z,93244.56
2022-09-16T07:03:40.443Z,93259.88
2022-09-16T07:06:08.117Z,93257.47
2022-09-16T07:08:36.454Z,93256.06
2022-09-16T07:11:11.510Z,93253.66
2022-09-16T07:13:37.959Z,93237.47
2022-09-16T07:16:19.706Z,93235.59
2022-09-16T07:18:48.228Z,93254.09
2022-09-16T07:21:17.075Z,93259.66
2022-09-16T07:23:44.773Z,93254.88
2022-09-16T07:26:14.356Z,93256.66
2022-09-16T07:28:42.540Z,93261.47
2022-09-16T07:31:13.446Z,93265.66
2022-09-16T07:33:42.342Z,93261.63
2022-09-16T07:36:10.958Z,93264.81
2022-09-16T07:38:37.930Z,93256.91
2022-09-16T07:41:11.307Z,93228.31
2022-09-16T07:43:41.627Z,93241.03
2022-09-16T07:46:10.621Z,93252.13
2022-09-16T07:48:37.863Z,93258.72
2022-09-16T07:51:10.551Z,93240.06
2022-09-16T07:53:37.651Z,93267.94
2022-09-16T07:56:06.810Z,93264.91
2022-09-16T07:58:33.351Z,93238.31
2022-09-16T08:01:04.257Z,93247.66
2022-09-16T08:03:32.606Z,93247.78
2022-09-16T08:06:05.760Z,93270.34
2022-09-16T08:08:33.038Z,93273.69
2022-09-16T08:11:00.642Z,93278.91
2022-09-16T08:13:29.211Z,93269.28
2022-09-16T08:15:59.368Z,93292.13
2022-09-16T08:18:25.772Z,93275.44
2022-09-16T08:20:52.134Z,93268.41
2022-09-16T08:23:18.937Z,93271.59
2022-09-16T08:25:45.540Z,93289.63
2022-09-16T08:28:16.608Z,93274.59
2022-09-16T08:30:43.925Z,93284.03
2022-09-16T08:33:10.790Z,93280.41
2022-09-16T08:35:37.217Z,93270.88
2022-09-16T08:38:03.782Z,93223.63
2022-09-16T08:40:36.884Z,93269.88
2022-09-16T08:43:12.506Z,93286.00
2022-09-16T08:45:41.960Z,93296.22
2022-09-16T08:48:28.559Z,93286.00
2022-09-16T08:50:58.918Z,93286.75
2022-09-16T08:53:36.847Z,93305.13
2022-09-16T08:56:07.438Z,93289.72
2022-09-16T08:58:45.994Z,93287.38
2022-09-16T09:01:23.376Z,93306.47
2022-09-16T09:03:50.045Z,93285.41
2022-09-16T09:07:00.044Z,93302.50
2022-09-16T09:09:41.605Z,93303.34
2022-09-16T09:12:27.083Z,93293.63
2022-09-16T09:15:17.330Z,93294.28
2022-09-16T09:18:10.810Z,93294.38
2022-09-16T09:20:47.899Z,93292.81
2022-09-16T09:23:47.387Z,93295.09
2022-09-16T09:26:22.131Z,93291.16
2022-09-16T09:29:00.523Z,93284.97
2022-09-16T09:31:33.598Z,93261.91
2022-09-16T09:34:26.731Z,93247.59
2022-09-16T09:36:56.010Z,93280.75
2022-09-16T09:39:59.738Z,93275.13
2022-09-16T09:42:34.149Z,93279.72
2022-09-16T09:45:05.432Z,93274.41
2022-09-16T09:47:47.921Z,93273.97
2022-09-16T09:50:20.544Z,93264.00
2022-09-16T09:53:08.995Z,93276.75
2022-09-16T09:55:35.619Z,93277.44
2022-09-16T09:58:12.159Z,93261.75
2022-09-16T10:00:38.598Z,93275.50
2022-09-16T10:03:14.716Z,93275.34
2022-09-16T10:05:42.214Z,93269.38
2022-09-16T10:08:20.874Z,93272.53
2022-09-16T10:10:53.794Z,93262.69
2022-09-16T10:13:21.671Z,93264.31
2022-09-16T10:15:53.282Z,93242.91
2022-09-16T10:18:21.843Z,93250.47
2022-09-16T10:21:06.982Z,93254.00
2022-09-16T10:23:35.324Z,93252.38
2022-09-16T10:26:20.719Z,93246.19
2022-09-16T10:28:55.531Z,93231.75
2022-09-16T10:31:24.267Z,93237.56
2022-09-16T10:33:50.823Z,93223.59
2022-09-16T10:36:27.759Z,93239.13
2022-09-16T10:39:02.246Z,93244.34
2022-09-16T10:41:42.544Z,93235.41
2022-09-16T10:44:21.433Z,93232.53
2022-09-16T10:46:54.365Z,93235.81
2022-09-16T10:49:26.580Z,93240.75
2022-09-16T10:52:14.616Z,93242.47
2022-09-16T10:54:41.288Z,93225.72
2022-09-16T10:57:21.714Z,93221.66
2022-09-16T10:59:59.630Z,93238.88
2022-09-16T11:02:44.106Z,93225.56
2022-09-16T11:05:26.211Z,93225.66
2022-09-16T11:08:02.213Z,93203.69
2022-09-16T11:10:46.935Z,93221.47
2022-09-16T11:13:32.819Z,93215.59
2022-09-16T11:16:17.614Z,93218.44
2022-09-16T11:18:52.868Z,93215.59
2022-09-16T11:21:46.960Z,93221.75
2022-09-16T11:24:32.238Z,93226.22
2022-09-16T11:27:13.391Z,93221.66
2022-09-16T11:30:03.503Z,93253.91
2022-09-16T11:32:46.529Z,93246.75
2022-09-16T11:35:32.348Z,93304.47
2022-09-16T11:38:24.817Z,93300.50
2022-09-16T11:41:00.204Z,93283.66
2022-09-16T11:43:44.851Z,93327.41
2022-09-16T11:46:30.151Z,93325.44
2022-09-16T11:49:14.964Z,93330.56
2022-09-16T11:51:53.508Z,93344.78
2022-09-16T11:54:33.636Z,93329.50
2022-09-16T11:57:06.131Z,93305.56
2022-09-16T11:59:44.724Z,93329.22
2022-09-16T12:02:20.763Z,93337.59
2022-09-16T12:05:07.036Z,93340.84
2022-09-16T12:07:45.212Z,93336.66
2022-09-16T12:10:22.672Z,93345.75
2022-09-16T12:12:54.207Z,93337.53
2022-09-16T12:15:26.485Z,93338.91
2022-09-16T12:18:01.850Z,93346.38
2022-09-16T12:20:37.135Z,93340.09
2022-09-16T12:23:17.419Z,93342.25
2022-09-16T12:26:14.156Z,93337.88
2022-09-16T12:29:06.509Z,93340.47
2022-09-16T12:31:53.609Z,93350.03
2022-09-16T12:34:26.514Z,93341.22
2022-09-16T12:37:00.908Z,93337.16
2022-09-16T12:39:28.668Z,93332.53
2022-09-16T12:42:32.730Z,93361.84
2022-09-16T12:45:22.080Z,93361.03
2022-09-16T12:48:19.663Z,93356.53
2022-09-16T12:50:56.668Z,93362.53
2022-09-16T12:53:50.021Z,93374.28
2022-09-16T12:56:19.388Z,93377.91
2022-09-16T12:59:17.664Z,93389.28
2022-09-16T13:01:50.325Z,93384.22
2022-09-16T13:04:31.102Z,93379.41
2022-09-16T13:07:05.053Z,93379.81
2022-09-16T13:09:38.838Z,93366.00
2022-09-16T13:15:07.308Z,93361.22
2022-09-16T13:17:42.827Z,93363.16
2022-09-16T13:20:12.186Z,93386.38
2022-09-16T13:22:47.545Z,93377.91
2022-09-16T13:25:13.883Z,93385.47
2022-09-16T13:27:56.057Z,93391.91
2022-09-16T13:30:36.410Z,93388.34
2022-09-16T13:33:08.823Z,93391.31
2022-09-16T13:35:38.996Z,93389.22
2022-09-16T13:38:23.183Z,93395.38
2022-09-16T13:41:01.439Z,93392.19
2022-09-16T13:43:46.786Z,93377.91
2022-09-16T13:46:27.449Z,93365.88
2022-09-16T13:49:04.055Z,93365.72
2022-09-16T13:51:36.024Z,93391.53
2022-09-16T13:54:04.168Z,93393.19
2022-09-16T13:56:42.113Z,93396.97
2022-09-16T13:59:33.414Z,93399.69
2022-09-16T14:02:06.504Z,93398.63
2022-09-16T14:04:54.320Z,93360.47
2022-09-16T14:07:26.768Z,93385.47
2022-09-16T14:10:04.842Z,93395.53
2022-09-16T14:13:04.195Z,93400.03
2022-09-16T14:15:36.652Z,93365.13
2022-09-16T14:18:03.976Z,93360.50
2022-09-16T14:20:33.130Z,93381.34
2022-09-16T14:23:17.482Z,93349.28
2022-09-16T14:25:43.852Z,93364.09
2022-09-16T14:28:22.069Z,93377.47
2022-09-16T14:30:52.866Z,93376.03
2022-09-16T14:33:23.369Z,93389.13
2022-09-16T14:35:52.182Z,93385.91
2022-09-16T14:38:44.494Z,93360.75
2022-09-16T14:41:10.559Z,93340.41
2022-09-16T14:43:38.768Z,93385.03
2022-09-16T14:46:07.833Z,93374.97
2022-09-16T14:48:38.971Z,93373.56
2022-09-16T14:51:16.692Z,93373.03
2022-09-16T14:54:11.655Z,93364.78
2022-09-16T14:56:39.038Z,93352.28
2022-09-16T14:59:06.633Z,93347.72
2022-09-16T15:01:33.060Z,93336.66
2022-09-16T15:04:23.529Z,93375.00
2022-09-16T15:06:58.827Z,93355.00
2022-09-16T15:09:45.228Z,93349.94
2022-09-16T15:12:29.505Z,93370.25
2022-09-16T15:14:57.175Z,93366.28
2022-09-16T15:17:27.327Z,93385.03
2022-09-16T15:19:58.954Z,93378.59
2022-09-16T15:22:26.869Z,93368.19
2022-09-16T15:24:56.757Z,93375.94
2022-09-16T15:27:25.933Z,93373.41
2022-09-16T15:30:01.070Z,93365.13
2022-09-16T15:32:31.624Z,93346.06
2022-09-16T15:35:04.153Z,93376.31
2022-09-16T15:37:33.098Z,93375.75
2022-09-16T15:40:28.749Z,93378.44
2022-09-16T15:43:27.899Z,93379.59
2022-09-16T15:46:00.253Z,93374.16
2022-09-16T15:48:31.747Z,93379.97
2022-09-16T15:51:06.281Z,93357.88
2022-09-16T15:53:32.599Z,93385.19
2022-09-16T15:56:04.371Z,93375.00
2022-09-16T15:58:45.644Z,93350.75
2022-09-16T16:01:30.331Z,93379.66
2022-09-16T16:03:59.040Z,93361.22
2022-09-16T16:06:51.768Z,93366.00
2022-09-16T16:09:28.682Z,93380.53
2022-09-16T16:11:56.021Z,93376.84
2022-09-16T16:14:24.499Z,93368.47
2022-09-16T16:17:11.872Z,93352.03
2022-09-16T16:19:39.089Z,93380.53
2022-09-16T16:22:06.939Z,93382.13
2022-09-16T16:24:33.811Z,93375.75
2022-09-16T16:27:00.481Z,93368.91
2022-09-16T16:29:27.119Z,93373.84
2022-09-16T16:32:04.404Z,93386.06
2022-09-16T16:34:35.658Z,93386.06
2022-09-16T16:37:02.981Z,93389.69
2022-09-16T16:39:35.178Z,93371.22
2022-09-16T16:42:04.974Z,93377.47
2022-09-16T16:44:31.857Z,93362.28
2022-09-16T16:46:59.383Z,93369.03
2022-09-16T16:49:29.867Z,93347.53
2022-09-16T16:52:09.611Z,93361.47
2022-09-16T16:54:43.676Z,93376.03
2022-09-16T16:57:11.132Z,93379.06
2022-09-16T16:59:38.607Z,93366.13
2022-09-16T17:02:05.501Z,93366.56
2022-09-16T17:04:31.882Z,93353.78
2022-09-16T17:07:23.980Z,93368.47
2022-09-16T17:09:49.351Z,93369.78
2022-09-16T17:12:18.132Z,93349.56
2022-09-16T17:14:44.684Z,93349.13
2022-09-16T17:17:11.142Z,93371.22
2022-09-16T17:19:38.546Z,93374.75
2022-09-16T17:22:05.112Z,93384.91
2022-09-16T17:24:34.528Z,93381.56
2022-09-16T17:27:01.598Z,93360.03
2022-09-16T17:29:29.245Z,93385.47
2022-09-16T17:32:00.588Z,93364.03
2022-09-16T17:34:28.078Z,93380.41
2022-09-16T17:36:57.524Z,93383.22
2022-09-16T17:39:24.112Z,93347.13
2022-09-16T17:41:51.570Z,93356.66
2022-09-16T17:44:19.542Z,93362.03
2022-09-16T17:46:48.119Z,93372.97
2022-09-16T17:49:22.559Z,93377.19
2022-09-16T17:51:50.263Z,93345.25
2022-09-16T17:54:17.333Z,93379.66
2022-09-16T17:56:47.959Z,93380.97
2022-09-16T17:59:17.191Z,93358.88
2022-09-16T18:01:43.968Z,93386.19
2022-09-16T18:04:11.003Z,93384.66
2022-09-16T18:06:45.607Z,93384.72
2022-09-16T18:09:14.299Z,93383.19
2022-09-16T18:11:40.828Z,93375.22
2022-09-16T18:14:10.120Z,93374.91
2022-09-16T18:16:36.599Z,93360.47
2022-09-16T18:19:04.434Z,93370.84
2022-09-16T18:21:31.722Z,93379.47
2022-09-16T18:24:01.051Z,93372.88
2022-09-16T18:26:28.714Z,93402.97
2022-09-16T18:29:12.646Z,93390.31
2022-09-16T18:31:41.710Z,93430.91
2022-09-16T18:34:08.363Z,93411.63
2022-09-16T18:36:36.814Z,93417.31
2022-09-16T18:39:04.390Z,93434.16
2022-09-16T18:41:34.965Z,93423.38
2022-09-16T18:44:04.887Z,93408.22
2022-09-16T18:46:33.746Z,93421.31
2022-09-16T18:49:00.768Z,93392.47
2022-09-16T18:51:38.512Z,93421.91
2022-09-16T18:54:11.953Z,93415.06
2022-09-16T18:56:40.020Z,93376.53
2022-09-16T18:59:23.851Z,93397.13
2022-09-16T19:01:53.445Z,93385.72
2022-09-16T19:04:23.240Z,93376.94
2022-09-16T19:06:51.954Z,93394.88
2022-09-16T19:09:20.665Z,93395.03
2022-09-16T19:11:47.827Z,93399.84
2022-09-16T19:14:14.838Z,93389.19
2022-09-16T19:16:43.082Z,93419.31
2022-09-16T19:19:11.248Z,93423.91
2022-09-16T19:21:38.086Z,93416.97
2022-09-16T19:24:07.525Z,93429.03
2022-09-16T19:26:36.299Z,93420.94
2022-09-16T19:29:06.630Z,93416.00
2022-09-16T19:31:35.194Z,93416.09
2022-09-16T19:34:02.076Z,93425.63
2022-09-16T19:36:30.531Z,93289.78
2022-09-16T19:38:59.346Z,93435.53
2022-09-16T19:41:29.214Z,93406.31
2022-09-16T19:43:58.310Z,93439.47
2022-09-16T19:46:25.777Z,93421.47
2022-09-16T19:48:52.879Z,93436.38
2022-09-16T19:51:22.752Z,93351.25
2022-09-16T19:53:50.218Z,93421.56
2022-09-16T19:56:21.326Z,93453.25
2022-09-16T19:58:48.225Z,93437.69
2022-09-16T20:01:18.257Z,93443.28
2022-09-16T20:03:45.746Z,93450.16
2022-09-16T20:06:14.439Z,93444.88
2022-09-16T20:08:42.727Z,93462.19
2022-09-16T20:11:21.589Z,93437.69
2022-09-16T20:14:00.218Z,93434.19
2022-09-16T20:16:28.879Z,93457.00
2022-09-16T20:18:55.481Z,93438.44
2022-09-16T20:21:26.838Z,93456.47
2022-09-16T20:23:54.316Z,93462.69
2022-09-16T20:26:21.981Z,93442.25
2022-09-16T20:28:51.354Z,93459.53
2022-09-16T20:31:29.188Z,93453.53
2022-09-16T20:33:55.931Z,93454.78
2022-09-16T20:36:24.357Z,93445.53
2022-09-16T20:38:51.134Z,93447.97
2022-09-16T20:41:23.734Z,93444.13
2022-09-16T20:43:51.039Z,93464.78
2022-09-16T20:46:21.647Z,93464.38
2022-09-16T20:48:49.116Z,93454.75
2022-09-16T20:51:18.154Z,93450.34
2022-09-16T20:53:49.870Z,93447.03
2022-09-16T20:56:17.518Z,93429.88
2022-09-16T20:58:44.531Z,93441.13
2022-09-16T21:01:14.989Z,93462.41
2022-09-16T21:03:42.821Z,93469.59
2022-09-16T21:06:12.274Z,93459.56
2022-09-16T21:08:39.760Z,93461.19
2022-09-16T21:11:09.264Z,93442.34
2022-09-16T21:13:35.713Z,93434.09
2022-09-16T21:16:02.641Z,93439.91
2022-09-16T21:18:30.404Z,93459.50
2022-09-16T21:21:01.839Z,93472.41
2022-09-16T21:23:28.982Z,93438.50
2022-09-16T21:25:56.017Z,93472.44
2022-09-16T21:28:23.303Z,93465.16
2022-09-16T21:30:59.621Z,93458.34
2022-09-16T21:33:27.296Z,93425.47
2022-09-16T21:35:53.854Z,93435.69
2022-09-16T21:38:20.839Z,93454.75
2022-09-16T21:40:54.722Z,93438.72
2022-09-16T21:43:21.153Z,93445.53
2022-09-16T21:45:48.033Z,93423.06
2022-09-16T21:48:16.548Z,93445.91
2022-09-16T21:50:42.930Z,93432.88
2022-09-16T21:53:09.361Z,93437.69
2022-09-16T21:55:35.747Z,93430.25
2022-09-16T21:58:02.120Z,93431.69
2022-09-16T22:00:30.350Z,93424.25
2022-09-16T22:02:57.100Z,93429.03
2022-09-16T22:05:23.903Z,93445.91
2022-09-16T22:07:50.378Z,93436.31
2022-09-16T22:10:16.970Z,93423.78
2022-09-16T22:12:43.865Z,93435.06
2022-09-16T22:15:10.550Z,93406.59
2022-09-16T22:17:36.938Z,93403.34
2022-09-16T22:20:03.608Z,93398.94
2022-09-16T22:22:30.956Z,93430.59
2022-09-16T22:24:57.311Z,93418.34
2022-09-16T22:27:23.725Z,93395.28
2022-09-16T22:29:50.106Z,93425.72
2022-09-16T22:32:16.468Z,93405.25
2022-09-16T22:34:42.856Z,93417.22
2022-09-16T22:37:09.277Z,93423.69
2022-09-16T22:39:35.676Z,93408.94
2022-09-16T22:42:02.065Z,93399.25
2022-09-16T22:44:28.514Z,93417.28
2022-09-16T22:46:54.938Z,93399.25
2022-09-16T22:49:21.324Z,93403.69
2022-09-16T22:51:51.858Z,93427.88
2022-09-16T22:54:18.283Z,93417.72
2022-09-16T22:56:44.679Z,93411.75
2022-09-16T22:59:19.739Z,93404.88
2022-09-16T23:01:47.012Z,93433.78
2022-09-16T23:04:13.598Z,93411.34
2022-09-16T23:06:40.137Z,93412.41
2022-09-16T23:09:09.122Z,93420.13
2022-09-16T23:11:36.045Z,93403.03
2022-09-16T23:14:04.078Z,93406.16
2022-09-16T23:16:33.326Z,93343.69
2022-09-16T23:19:02.034Z,93419.56
2022-09-16T23:21:29.155Z,93394.47
2022-09-16T23:23:57.461Z,93420.59
2022-09-16T23:26:27.207Z,93419.81
2022-09-16T23:28:56.129Z,93425.00
2022-09-16T23:31:25.507Z,93428.19
2022-09-16T23:33:53.174Z,93394.16
2022-09-16T23:36:20.200Z,93419.00
2022-09-16T23:38:48.110Z,93433.84
2022-09-16T23:41:20.564Z,93412.56
2022-09-16T23:43:48.714Z,93415.34
2022-09-16T23:46:19.130Z,93421.09
2022-09-16T23:48:46.110Z,93436.16
2022-09-16T23:51:14.036Z,93441.78
2022-09-16T23:53:42.376Z,93446.59
2022-09-16T23:56:11.032Z,93440.97
2022-09-16T23:58:37.856Z,93416.19
